Time;durP1;ratioP1;P1;durP2;ratioP2;P2;SDS_P1;SDS_P2;PMS_P1;PMS_P2;Temp;Humidity;BMP_temperature;BMP_pressure;BME280_temperature;BME280_humidity;BME280_pressure;Samples;Min_cycle;Max_cycle;Signal;HPM_P1;HPM_P2
2023/09/17 00:02:14;;;;;;;;;;;;;;;22.35;69.98;97478.75;594162;239;65033;-65
2023/09/17 00:04:42;;;;;;;;;;;;;;;22.36;70.21;97476.88;594182;239;66996;-65
2023/09/17 00:07:10;;;;;;;;;;;;;;;22.35;69.83;97472.60;594121;239;62990;-65
2023/09/17 00:09:38;;;;;;;;;;;;;;;22.34;69.85;97485.19;594105;239;64906;-65
2023/09/17 00:12:05;;;;;;;;;;;;;;;22.35;70.19;97478.75;594141;239;64778;-65
2023/09/17 00:14:33;;;;;;;;;;;;;;;22.35;69.84;97478.75;594118;239;65000;-65
2023/09/17 00:17:00;;;;;;;;;;;;;;;22.35;70.12;97475.28;594191;239;67276;-65
2023/09/17 00:19:28;;;;;;;;;;;;;;;22.35;69.86;97472.60;594143;239;64805;-65
2023/09/17 00:21:55;;;;;;;;;;;;;;;22.35;70.21;97470.72;594130;239;64875;-65
2023/09/17 00:24:23;;;;;;;;;;;;;;;22.34;69.71;97465.63;594106;239;67242;-65
2023/09/17 00:26:50;;;;;;;;;;;;;;;22.34;70.29;97471.80;594164;239;66911;-65
2023/09/17 00:29:18;;;;;;;;;;;;;;;22.34;69.99;97471.80;594178;239;66145;-65
2023/09/17 00:31:46;;;;;;;;;;;;;;;22.34;70.46;97468.30;592767;239;64478;-65
2023/09/17 00:34:13;;;;;;;;;;;;;;;22.34;69.94;97471.80;591374;240;66076;-65
2023/09/17 00:36:41;;;;;;;;;;;;;;;22.34;70.04;97468.30;591357;240;63612;-65
2023/09/17 00:39:09;;;;;;;;;;;;;;;22.34;70.28;97470.98;591366;240;67487;-65
2023/09/17 00:41:36;;;;;;;;;;;;;;;22.33;70.04;97470.18;591435;240;67027;-65
2023/09/17 00:44:04;;;;;;;;;;;;;;;22.34;70.46;97474.48;591368;240;63849;-65
2023/09/17 00:46:32;;;;;;;;;;;;;;;22.33;69.59;97474.73;591393;240;67320;-64
2023/09/17 00:49:00;;;;;;;;;;;;;;;22.33;70.33;97480.09;591363;240;67054;-65
2023/09/17 00:51:28;;;;;;;;;;;;;;;22.33;70.05;97474.73;591366;240;63310;-64
2023/09/17 00:53:57;;;;;;;;;;;;;;;22.33;70.14;97474.73;591372;240;66951;-65
2023/09/17 00:56:26;;;;;;;;;;;;;;;22.33;70.39;97470.18;591409;240;66965;-65
2023/09/17 00:58:54;;;;;;;;;;;;;;;22.33;69.86;97474.73;591351;240;65262;-65
2023/09/17 01:01:22;;;;;;;;;;;;;;;22.32;69.86;97473.94;591388;240;68181;-65
2023/09/17 01:03:50;;;;;;;;;;;;;;;22.32;69.85;97471.27;591330;240;67028;-65
2023/09/17 01:06:17;;;;;;;;;;;;;;;22.32;69.55;97476.62;591385;240;65058;-65
2023/09/17 01:08:46;;;;;;;;;;;;;;;22.33;69.89;97477.41;591422;240;64909;-65
2023/09/17 01:11:14;;;;;;;;;;;;;;;22.32;69.19;97470.47;591364;240;67172;-65
2023/09/17 01:13:58;;;;;;;;;;;;;;;22.33;69.76;97469.38;591389;240;63921;-65
2023/09/17 01:16:11;;;;;;;;;;;;;;;22.31;69.09;97472.31;590502;240;64742;-65
2023/09/17 01:18:39;;;;;;;;;;;;;;;22.33;69.77;97477.41;591365;240;67478;-65
2023/09/17 01:21:17;;;;;;;;;;;;;;;22.32;70.16;97470.47;591422;240;66078;-65
2023/09/17 01:23:50;;;;;;;;;;;;;;;22.30;69.24;97473.40;590214;240;64709;-65
2023/09/17 01:26:19;;;;;;;;;;;;;;;22.31;70.02;97464.28;591249;240;67027;-64
2023/09/17 01:28:47;;;;;;;;;;;;;;;22.31;69.78;97458.92;591251;239;66180;-65
2023/09/17 01:31:15;;;;;;;;;;;;;;;22.29;69.91;97461.09;592057;239;64504;-65
2023/09/17 01:33:43;;;;;;;;;;;;;;;22.30;70.28;97457.33;594157;239;64972;-65
2023/09/17 01:36:19;;;;;;;;;;;;;;;22.29;69.94;97453.06;594178;239;62873;-65
2023/09/17 01:38:48;;;;;;;;;;;;;;;22.29;70.02;97452.23;594083;239;67958;-65
2023/09/17 01:41:17;;;;;;;;;;;;;;;22.29;69.44;97452.23;594171;239;66382;-65
2023/09/17 01:43:45;;;;;;;;;;;;;;;22.28;69.99;97443.41;594119;239;63564;-65
2023/09/17 01:46:16;;;;;;;;;;;;;;;22.29;69.41;97442.35;594152;239;67263;-65
2023/09/17 01:48:43;;;;;;;;;;;;;;;22.28;70.01;97438.05;594156;239;67074;-65
2023/09/17 01:51:11;;;;;;;;;;;;;;;22.28;70.00;97439.93;594146;239;65021;-65
2023/09/17 01:53:39;;;;;;;;;;;;;;;22.27;69.61;97439.13;594129;239;67029;-65
2023/09/17 01:56:06;;;;;;;;;;;;;;;22.28;70.11;97438.05;594133;239;63026;-65
2023/09/17 01:58:34;;;;;;;;;;;;;;;22.28;69.50;97437.25;594126;239;65206;-65
2023/09/17 02:01:03;;;;;;;;;;;;;;;22.28;69.65;97438.05;594167;239;64350;-65
2023/09/17 02:03:30;;;;;;;;;;;;;;;22.27;69.55;97439.13;594173;239;67074;-68
2023/09/17 02:05:58;;;;;;;;;;;;;;;22.27;69.40;97436.45;594149;239;62742;-68
2023/09/17 02:08:26;;;;;;;;;;;;;;;22.27;69.20;97433.78;594073;239;66850;-68
2023/09/17 02:10:53;;;;;;;;;;;;;;;22.28;69.52;97440.73;594136;239;66975;-68
2023/09/17 02:13:21;;;;;;;;;;;;;;;22.28;69.23;97439.93;594090;239;65697;-68
2023/09/17 02:15:49;;;;;;;;;;;;;;;22.27;69.37;97433.78;594170;239;65015;-68
2023/09/17 02:18:16;;;;;;;;;;;;;;;22.28;69.22;97431.90;594085;239;67492;-64
2023/09/17 02:20:44;;;;;;;;;;;;;;;22.27;69.48;97439.13;594117;239;65194;-65
2023/09/17 02:23:12;;;;;;;;;;;;;;;22.27;69.49;97433.78;594135;239;67372;-65
2023/09/17 02:25:39;;;;;;;;;;;;;;;22.27;69.31;97438.33;594122;239;67969;-65
2023/09/17 02:28:08;;;;;;;;;;;;;;;22.27;69.81;97436.45;594157;239;65537;-65
2023/09/17 02:30:36;;;;;;;;;;;;;;;22.27;69.67;97433.78;594133;239;64686;-65
2023/09/17 02:33:04;;;;;;;;;;;;;;;22.27;69.75;97444.48;594176;239;65483;-65
2023/09/17 02:35:31;;;;;;;;;;;;;;;22.27;69.88;97436.45;594126;239;65157;-65
2023/09/17 02:37:59;;;;;;;;;;;;;;;22.26;69.82;97434.86;594130;239;68007;-65
2023/09/17 02:40:26;;;;;;;;;;;;;;;22.26;69.78;97426.00;594211;239;64701;-65
2023/09/17 02:42:54;;;;;;;;;;;;;;;22.26;69.75;97429.50;594137;239;65293;-65
2023/09/17 02:45:21;;;;;;;;;;;;;;;22.26;69.90;97429.50;594147;239;67963;-65
2023/09/17 02:47:50;;;;;;;;;;;;;;;22.25;69.86;97425.20;587443;239;63600;-65
2023/09/17 02:50:17;;;;;;;;;;;;;;;22.24;69.93;97418.25;594127;239;64950;-65
2023/09/17 02:52:45;;;;;;;;;;;;;;;22.25;70.03;97427.88;594176;239;67330;-65
2023/09/17 02:55:13;;;;;;;;;;;;;;;22.25;69.33;97416.38;594172;239;64562;-65
2023/09/17 02:57:41;;;;;;;;;;;;;;;22.24;69.43;97418.25;594147;239;65106;-65
2023/09/17 03:00:10;;;;;;;;;;;;;;;22.24;69.62;97420.13;594154;239;67142;-65
2023/09/17 03:02:47;;;;;;;;;;;;;;;22.25;69.81;97419.84;594081;239;65372;-64
2023/09/17 03:05:10;;;;;;;;;;;;;;;22.25;69.67;97413.70;593689;239;65240;-65
2023/09/17 03:07:36;;;;;;;;;;;;;;;22.24;69.17;97420.94;594180;239;67756;-65
2023/09/17 03:10:07;;;;;;;;;;;;;;;22.24;69.30;97423.61;594153;239;64829;-65
2023/09/17 03:12:34;;;;;;;;;;;;;;;22.24;69.62;97426.28;594145;239;65890;-68
2023/09/17 03:15:02;;;;;;;;;;;;;;;22.24;69.76;97420.94;594125;239;64640;-68
2023/09/17 03:17:29;;;;;;;;;;;;;;;22.22;69.19;97428.42;594133;239;67240;-68
2023/09/17 03:19:57;;;;;;;;;;;;;;;22.24;69.62;97423.61;594215;239;65150;-68
2023/09/17 03:22:26;;;;;;;;;;;;;;;22.23;69.56;97430.02;594107;239;67351;-68
2023/09/17 03:24:56;;;;;;;;;;;;;;;22.23;69.44;97435.38;594148;239;64565;-68
2023/09/17 03:27:23;;;;;;;;;;;;;;;22.25;69.33;97435.11;594134;239;65127;-68
2023/09/17 03:29:51;;;;;;;;;;;;;;;22.23;69.17;97438.05;594129;239;64707;-68
2023/09/17 03:32:19;;;;;;;;;;;;;;;22.23;69.08;97440.72;594193;239;64920;-68
2023/09/17 03:34:47;;;;;;;;;;;;;;;22.24;69.39;97439.67;594131;239;62802;-68
2023/09/17 03:37:15;;;;;;;;;;;;;;;22.23;69.07;97430.02;594161;239;67342;-68
2023/09/17 03:39:44;;;;;;;;;;;;;;;22.24;69.46;97430.84;594159;239;67059;-68
2023/09/17 03:42:11;;;;;;;;;;;;;;;22.23;69.82;97435.38;594096;239;65088;-68
2023/09/17 03:44:40;;;;;;;;;;;;;;;22.22;69.80;97419.59;594212;239;64655;-68
2023/09/17 03:47:08;;;;;;;;;;;;;;;22.23;69.44;97426.54;594110;239;67221;-68
2023/09/17 03:49:36;;;;;;;;;;;;;;;22.22;69.38;97428.42;594144;239;65847;-68
2023/09/17 03:52:06;;;;;;;;;;;;;;;22.22;69.38;97424.95;594105;239;67299;-68
2023/09/17 03:54:33;;;;;;;;;;;;;;;22.21;69.30;97432.18;594064;239;67376;-68
2023/09/17 03:57:01;;;;;;;;;;;;;;;22.21;69.59;97426.83;594115;239;62672;-68
2023/09/17 03:59:29;;;;;;;;;;;;;;;22.21;69.50;97429.50;594161;239;67835;-68
2023/09/17 04:01:57;;;;;;;;;;;;;;;22.21;69.51;97424.15;594151;239;64638;-68
2023/09/17 04:04:25;;;;;;;;;;;;;;;22.22;69.58;97431.10;594131;239;63033;-69
2023/09/17 04:06:52;;;;;;;;;;;;;;;22.20;69.63;97427.88;594119;239;67433;-68
2023/09/17 04:09:20;;;;;;;;;;;;;;;22.22;69.39;97438.33;594145;239;66852;-68
2023/09/17 04:11:47;;;;;;;;;;;;;;;22.21;69.38;97434.03;594180;239;63015;-68
2023/09/17 04:14:15;;;;;;;;;;;;;;;22.20;69.69;97438.59;594112;239;67427;-68
2023/09/17 04:16:42;;;;;;;;;;;;;;;22.21;69.65;97442.89;594130;239;67332;-68
2023/09/17 04:19:11;;;;;;;;;;;;;;;22.20;69.33;97438.59;594144;239;63017;-68
2023/09/17 04:21:39;;;;;;;;;;;;;;;22.19;69.12;97436.99;594121;239;68120;-68
2023/09/17 04:24:07;;;;;;;;;;;;;;;22.20;69.07;97443.14;594133;239;64532;-68
2023/09/17 04:26:34;;;;;;;;;;;;;;;22.21;69.28;97448.24;594133;239;65781;-68
2023/09/17 04:29:02;;;;;;;;;;;;;;;22.20;69.11;97446.62;594125;239;67229;-68
2023/09/17 04:31:30;;;;;;;;;;;;;;;22.20;69.23;97445.82;594116;239;67349;-67
2023/09/17 04:33:58;;;;;;;;;;;;;;;22.20;69.42;97449.30;594147;239;65106;-68
2023/09/17 04:36:26;;;;;;;;;;;;;;;22.20;69.26;97449.30;594148;239;64766;-68
2023/09/17 04:38:53;;;;;;;;;;;;;;;22.20;69.34;97451.97;594135;239;67117;-68
2023/09/17 04:41:21;;;;;;;;;;;;;;;22.20;69.32;97456.53;594119;239;62675;-68
2023/09/17 04:43:48;;;;;;;;;;;;;;;22.19;68.95;97452.26;594136;239;67638;-68
2023/09/17 04:46:16;;;;;;;;;;;;;;;22.19;69.10;97454.94;594102;239;68048;-68
2023/09/17 04:48:45;;;;;;;;;;;;;;;22.20;69.32;97456.53;593987;239;42150;-68
2023/09/17 04:51:16;;;;;;;;;;;;;;;22.19;69.21;97453.05;594170;239;65062;-68
2023/09/17 04:53:43;;;;;;;;;;;;;;;22.18;69.22;97454.14;594098;239;67563;-68
2023/09/17 04:56:11;;;;;;;;;;;;;;;22.19;69.07;97453.05;594140;239;65033;-68
2023/09/17 04:58:39;;;;;;;;;;;;;;;22.19;69.02;97461.09;594155;239;67391;-68
2023/09/17 05:01:06;;;;;;;;;;;;;;;22.18;69.21;97451.46;594114;239;66898;-68
2023/09/17 05:03:37;;;;;;;;;;;;;;;22.19;68.84;97460.29;594158;239;63693;-69
2023/09/17 05:06:04;;;;;;;;;;;;;;;22.19;69.36;97463.77;594122;239;64975;-68
2023/09/17 05:08:33;;;;;;;;;;;;;;;22.19;69.12;97468.32;594125;239;67399;-65
2023/09/17 05:11:01;;;;;;;;;;;;;;;22.18;69.28;97456.81;594147;239;64952;-65
2023/09/17 05:13:28;;;;;;;;;;;;;;;22.18;69.42;97456.81;594119;239;64652;-65
2023/09/17 05:15:56;;;;;;;;;;;;;;;22.17;69.01;97461.31;594158;239;67174;-65
2023/09/17 05:18:24;;;;;;;;;;;;;;;22.18;69.67;97462.17;594133;239;65062;-65
2023/09/17 05:20:53;;;;;;;;;;;;;;;22.18;69.06;97467.52;594137;239;67415;-64
2023/09/17 05:23:22;;;;;;;;;;;;;;;22.17;69.32;97458.63;594165;239;67405;-65
2023/09/17 05:25:51;;;;;;;;;;;;;;;22.18;69.49;97456.81;594150;239;42241;-65
2023/09/17 05:28:20;;;;;;;;;;;;;;;22.17;69.10;97455.16;594104;239;67264;-65
2023/09/17 05:30:48;;;;;;;;;;;;;;;22.15;68.64;97460.80;594082;239;67366;-65
2023/09/17 05:33:16;;;;;;;;;;;;;;;22.17;69.22;97463.19;594131;239;62529;-65
2023/09/17 05:35:44;;;;;;;;;;;;;;;22.17;68.96;97457.84;594121;239;64892;-65
2023/09/17 05:38:11;;;;;;;;;;;;;;;22.16;68.93;97465.07;594134;239;67334;-65
2023/09/17 05:40:40;;;;;;;;;;;;;;;22.16;68.68;97462.39;594119;239;65622;-65
2023/09/17 05:43:08;;;;;;;;;;;;;;;22.16;68.92;97462.39;594134;239;67702;-65
2023/09/17 05:45:36;;;;;;;;;;;;;;;22.16;68.95;97458.92;594141;239;66911;-65
2023/09/17 05:48:04;;;;;;;;;;;;;;;22.16;69.02;97461.59;594164;239;62913;-65
2023/09/17 05:50:32;;;;;;;;;;;;;;;22.15;69.10;97458.13;587434;239;65624;-65
2023/09/17 05:53:00;;;;;;;;;;;;;;;22.14;67.98;97451.14;594129;239;66808;-65
2023/09/17 05:55:28;;;;;;;;;;;;;;;22.16;68.49;97458.92;594135;239;64065;-65
2023/09/17 05:57:56;;;;;;;;;;;;;;;22.15;68.57;97452.77;594118;239;67392;-65
2023/09/17 06:00:25;;;;;;;;;;;;;;;22.15;69.02;97458.13;594125;239;64898;-65
2023/09/17 06:02:53;;;;;;;;;;;;;;;22.14;68.72;97463.73;594136;239;64908;-65
2023/09/17 06:05:20;;;;;;;;;;;;;;;22.15;68.17;97457.30;594174;239;66791;-65
2023/09/17 06:07:48;;;;;;;;;;;;;;;22.16;68.51;97464.27;594219;239;66733;-65
2023/09/17 06:10:16;;;;;;;;;;;;;;;22.15;68.48;97462.65;594154;239;63116;-65
2023/09/17 06:12:43;;;;;;;;;;;;;;;22.15;68.97;97454.62;594163;239;65839;-65
2023/09/17 06:15:12;;;;;;;;;;;;;;;22.15;69.13;97457.30;594171;239;66937;-65
2023/09/17 06:17:41;;;;;;;;;;;;;;;22.14;68.89;97461.84;594152;239;62503;-65
2023/09/17 06:20:09;;;;;;;;;;;;;;;22.14;68.62;97461.05;594141;239;67211;-65
2023/09/17 06:22:37;;;;;;;;;;;;;;;22.13;68.88;97462.13;594166;239;64892;-65
2023/09/17 06:25:05;;;;;;;;;;;;;;;22.12;68.18;97463.19;594154;239;65094;-65
2023/09/17 06:27:34;;;;;;;;;;;;;;;22.13;67.30;97465.61;594129;239;65286;-65
2023/09/17 06:30:02;;;;;;;;;;;;;;;22.15;68.45;97465.33;594158;239;64520;-65
2023/09/17 06:32:30;;;;;;;;;;;;;;;22.15;69.08;97465.33;594127;239;65745;-64
2023/09/17 06:34:58;;;;;;;;;;;;;;;22.15;68.45;97471.50;594174;239;67091;-64
2023/09/17 06:37:28;;;;;;;;;;;;;;;22.15;68.23;97466.16;594163;239;64763;-64
2023/09/17 06:39:55;;;;;;;;;;;;;;;22.16;68.75;97469.63;594135;239;63584;-65
2023/09/17 06:42:23;;;;;;;;;;;;;;;22.16;68.61;97478.45;594123;239;67329;-65
2023/09/17 06:44:51;;;;;;;;;;;;;;;22.17;68.93;97471.22;594142;239;68004;-65
2023/09/17 06:47:18;;;;;;;;;;;;;;;22.16;69.01;97473.09;594178;239;62707;-65
2023/09/17 06:49:46;;;;;;;;;;;;;;;22.18;69.19;97475.55;594095;239;67416;-65
2023/09/17 06:52:13;;;;;;;;;;;;;;;22.16;69.30;97477.66;594147;239;66960;-65
2023/09/17 06:54:41;;;;;;;;;;;;;;;22.17;69.10;97480.05;594133;239;65832;-65
2023/09/17 06:57:08;;;;;;;;;;;;;;;22.17;69.25;97476.58;594150;239;67093;-65
2023/09/17 06:59:36;;;;;;;;;;;;;;;22.18;69.35;97478.23;593823;236;67092;-65
2023/09/17 07:02:03;;;;;;;;;;;;;;;22.18;69.60;97472.88;593930;239;65089;-65
2023/09/17 07:04:31;;;;;;;;;;;;;;;22.18;70.06;97478.23;594133;239;66977;-65
2023/09/17 07:07:00;;;;;;;;;;;;;;;22.19;69.75;97476.35;594134;239;66957;-65
2023/09/17 07:09:28;;;;;;;;;;;;;;;22.18;69.49;97478.23;593610;239;62802;-65
2023/09/17 07:11:56;;;;;;;;;;;;;;;22.17;69.76;97472.02;581145;241;68592;-65
2023/09/17 07:14:24;;;;;;;;;;;;;;;22.19;70.06;97485.18;581423;241;70083;-64
2023/09/17 07:16:51;;;;;;;;;;;;;;;22.19;69.96;97485.18;587698;241;62710;-65
2023/09/17 07:19:19;;;;;;;;;;;;;;;22.18;70.04;97486.27;587702;241;64921;-65
2023/09/17 07:21:46;;;;;;;;;;;;;;;22.18;70.01;97491.61;587729;241;67012;-65
2023/09/17 07:24:14;;;;;;;;;;;;;;;22.19;70.04;97485.18;587713;241;62818;-65
2023/09/17 07:26:42;;;;;;;;;;;;;;;22.20;70.28;97488.66;587787;241;67417;-65
2023/09/17 07:29:10;;;;;;;;;;;;;;;22.19;70.47;97484.38;587684;241;66923;-64
2023/09/17 07:31:37;;;;;;;;;;;;;;;22.19;70.17;97487.06;584661;241;65027;-65
2023/09/17 07:34:05;;;;;;;;;;;;;;;22.19;70.26;97490.53;580581;244;67175;-65
2023/09/17 07:36:32;;;;;;;;;;;;;;;22.20;70.47;97502.04;580602;244;66843;-65
2023/09/17 07:39:00;;;;;;;;;;;;;;;22.20;70.47;97492.13;580626;244;64665;-65
2023/09/17 07:41:28;;;;;;;;;;;;;;;22.19;70.30;97501.24;580597;244;65328;-65
2023/09/17 07:43:57;;;;;;;;;;;;;;;22.20;70.28;97494.80;580574;244;66776;-65
2023/09/17 07:46:24;;;;;;;;;;;;;;;22.20;70.21;97499.36;580579;244;64943;-65
2023/09/17 07:48:52;;;;;;;;;;;;;;;22.20;70.59;97500.16;580594;244;65090;-64
2023/09/17 07:51:19;;;;;;;;;;;;;;;22.19;70.35;97495.89;580649;244;64471;-65
2023/09/17 07:53:47;;;;;;;;;;;;;;;22.20;70.45;97500.16;580614;244;65378;-65
2023/09/17 07:56:15;;;;;;;;;;;;;;;22.21;70.58;97493.75;580570;244;67201;-64
2023/09/17 07:58:42;;;;;;;;;;;;;;;22.20;70.71;97494.80;580564;244;67316;-65
2023/09/17 08:01:11;;;;;;;;;;;;;;;22.20;70.32;97494.80;580589;244;65004;-65
2023/09/17 08:03:39;;;;;;;;;;;;;;;22.20;70.45;97494.80;580567;244;67314;-65
2023/09/17 08:06:06;;;;;;;;;;;;;;;22.20;70.12;97485.98;580641;244;66883;-65
2023/09/17 08:08:34;;;;;;;;;;;;;;;22.21;70.20;97485.72;580562;244;64901;-64
2023/09/17 08:11:03;;;;;;;;;;;;;;;22.21;70.34;97482.22;580548;244;67244;-65
2023/09/17 08:13:30;;;;;;;;;;;;;;;22.21;70.16;97482.22;580593;244;64845;-65
2023/09/17 08:15:58;;;;;;;;;;;;;;;22.21;70.50;97477.69;580623;244;62956;-65
2023/09/17 08:18:25;;;;;;;;;;;;;;;22.21;70.34;97475.02;580554;244;66871;-65
2023/09/17 08:20:53;;;;;;;;;;;;;;;22.21;70.43;97471.51;580610;244;64862;-65
2023/09/17 08:23:20;;;;;;;;;;;;;;;22.22;70.41;97475.81;580523;244;64943;-64
2023/09/17 08:25:48;;;;;;;;;;;;;;;22.21;70.69;97472.34;580555;244;67415;-65
2023/09/17 08:28:16;;;;;;;;;;;;;;;22.20;70.62;97470.71;580617;244;66776;-65
2023/09/17 08:30:43;;;;;;;;;;;;;;;22.21;70.79;97463.48;580547;242;65227;-65
2023/09/17 08:33:11;;;;;;;;;;;;;;;22.21;70.61;97466.16;580597;244;67162;-64
2023/09/17 08:35:39;;;;;;;;;;;;;;;22.22;70.69;97467.78;580593;244;64851;-65
2023/09/17 08:38:08;;;;;;;;;;;;;;;22.21;70.44;97461.63;580555;242;65175;-65
2023/09/17 08:40:37;;;;;;;;;;;;;;;22.21;70.51;97461.63;580625;244;67111;-65
2023/09/17 08:43:05;;;;;;;;;;;;;;;22.21;70.51;97461.63;580591;244;65102;-65
2023/09/17 08:45:33;;;;;;;;;;;;;;;22.22;70.02;97462.42;580574;244;65151;-65
2023/09/17 08:48:00;;;;;;;;;;;;;;;22.21;70.27;97456.27;580530;244;65188;-65
2023/09/17 08:50:31;;;;;;;;;;;;;;;22.23;70.64;97459.47;580575;244;67329;-64
2023/09/17 08:53:00;;;;;;;;;;;;;;;22.22;70.59;97457.88;580548;242;63838;-65
2023/09/17 08:55:27;;;;;;;;;;;;;;;22.22;71.22;97452.52;580597;244;64996;-65
2023/09/17 08:58:00;;;;;;;;;;;;;;;22.22;71.03;97463.22;580581;244;67331;-65
2023/09/17 09:00:29;;;;;;;;;;;;;;;22.21;71.01;97448.24;580424;244;62791;-64
2023/09/17 09:02:58;;;;;;;;;;;;;;;22.22;71.32;97457.07;580555;244;65407;-65
2023/09/17 09:05:27;;;;;;;;;;;;;;;22.22;71.08;97449.04;580610;244;64555;-65
2023/09/17 09:07:56;;;;;;;;;;;;;;;22.22;71.36;97452.52;580625;244;65180;-64
2023/09/17 09:10:24;;;;;;;;;;;;;;;22.22;71.29;97457.07;580560;244;67301;-64
2023/09/17 09:12:52;;;;;;;;;;;;;;;22.22;71.10;97457.88;580573;244;65401;-64
2023/09/17 09:15:20;;;;;;;;;;;;;;;22.22;71.10;97455.19;580573;244;62906;-64
2023/09/17 09:17:47;;;;;;;;;;;;;;;22.22;71.07;97452.52;580583;244;67112;-64
2023/09/17 09:20:16;;;;;;;;;;;;;;;22.22;70.65;97452.52;580630;244;64766;-64
2023/09/17 09:22:45;;;;;;;;;;;;;;;22.22;70.80;97455.19;580635;244;65213;-64
2023/09/17 09:25:16;;;;;;;;;;;;;;;22.23;71.21;97451.44;580597;244;64600;-64
2023/09/17 09:27:43;;;;;;;;;;;;;;;22.21;71.29;97456.27;580566;244;66981;-64
2023/09/17 09:30:12;;;;;;;;;;;;;;;22.23;71.13;97454.11;580562;244;65227;-64
2023/09/17 09:32:39;;;;;;;;;;;;;;;22.23;71.26;97456.79;580467;242;64649;-64
2023/09/17 09:35:08;;;;;;;;;;;;;;;22.22;71.25;97457.88;580550;244;67078;-64
2023/09/17 09:37:36;;;;;;;;;;;;;;;22.21;71.31;97450.92;580473;244;65118;-64
2023/09/17 09:40:05;;;;;;;;;;;;;;;22.23;71.07;97456.79;580483;244;67527;-64
2023/09/17 09:42:32;;;;;;;;;;;;;;;22.24;71.45;97460.30;580472;244;67363;-64
2023/09/17 09:45:00;;;;;;;;;;;;;;;22.22;71.17;97457.88;580485;244;65018;-64
2023/09/17 09:47:27;;;;;;;;;;;;;;;22.24;71.35;97462.97;580534;244;67096;-64
2023/09/17 09:49:56;;;;;;;;;;;;;;;22.22;71.57;97460.55;580492;244;66822;-64
2023/09/17 09:52:28;;;;;;;;;;;;;;;22.23;71.63;97456.79;580502;244;65182;-64
2023/09/17 09:54:53;;;;;;;;;;;;;;;22.23;71.35;97462.14;580239;244;65414;-64
2023/09/17 09:57:21;;;;;;;;;;;;;;;22.23;71.48;97454.11;580477;244;66742;-64
2023/09/17 09:59:50;;;;;;;;;;;;;;;22.23;71.48;97458.67;580530;242;65017;-64
2023/09/17 10:02:20;;;;;;;;;;;;;;;22.23;71.07;97454.11;580547;244;66999;-64
2023/09/17 10:04:47;;;;;;;;;;;;;;;22.23;71.13;97456.79;580530;242;64666;-64
2023/09/17 10:07:15;;;;;;;;;;;;;;;22.23;71.51;97451.44;580491;244;64938;-64
2023/09/17 10:09:43;;;;;;;;;;;;;;;22.24;71.37;97460.30;580464;244;66893;-64
2023/09/17 10:12:11;;;;;;;;;;;;;;;22.23;71.13;97451.44;580511;244;66719;-64
2023/09/17 10:14:39;;;;;;;;;;;;;;;22.23;71.27;97451.44;580548;244;62887;-64
2023/09/17 10:17:07;;;;;;;;;;;;;;;22.24;71.06;97453.06;580493;244;67027;-64
2023/09/17 10:19:35;;;;;;;;;;;;;;;22.23;71.59;97448.75;580519;244;66644;-64
2023/09/17 10:22:06;;;;;;;;;;;;;;;22.24;71.43;97455.73;580471;244;63053;-64
2023/09/17 10:24:35;;;;;;;;;;;;;;;22.24;71.41;97461.09;580458;244;65162;-65
2023/09/17 10:27:05;;;;;;;;;;;;;;;22.24;71.36;97458.41;580503;244;67257;-65
2023/09/17 10:29:34;;;;;;;;;;;;;;;22.24;71.54;97450.38;580463;244;62956;-65
2023/09/17 10:32:03;;;;;;;;;;;;;;;22.23;71.19;97448.75;580489;242;67406;-65
2023/09/17 10:34:37;;;;;;;;;;;;;;;22.23;71.28;97451.44;580584;244;64701;-64
2023/09/17 10:37:05;;;;;;;;;;;;;;;22.24;71.67;97450.38;579674;244;62880;-64
2023/09/17 10:39:35;;;;;;;;;;;;;;;22.24;71.27;97449.59;583338;242;65106;-65
2023/09/17 10:42:04;;;;;;;;;;;;;;;22.23;71.41;97451.44;586901;242;67723;-65
2023/09/17 10:44:36;;;;;;;;;;;;;;;22.24;71.18;97453.06;586864;242;65161;-65
2023/09/17 10:47:04;;;;;;;;;;;;;;;22.23;71.24;97443.40;586835;242;65350;-65
2023/09/17 10:49:32;;;;;;;;;;;;;;;22.23;71.34;97437.25;586798;241;67063;-65
2023/09/17 10:52:00;;;;;;;;;;;;;;;22.23;71.00;97440.72;586846;242;65289;-65
2023/09/17 10:54:27;;;;;;;;;;;;;;;22.23;69.92;97438.05;586915;242;67335;-65
2023/09/17 10:56:56;;;;;;;;;;;;;;;22.23;69.95;97426.54;586872;242;66870;-65
2023/09/17 10:59:25;;;;;;;;;;;;;;;22.23;70.15;97431.89;586885;242;62769;-65
2023/09/17 11:01:53;;;;;;;;;;;;;;;22.23;69.92;97423.86;586859;239;64560;-65
2023/09/17 11:04:22;;;;;;;;;;;;;;;22.24;69.64;97420.13;586885;242;66976;-65
2023/09/17 11:06:50;;;;;;;;;;;;;;;22.24;69.54;97414.78;586899;239;63016;-65
2023/09/17 11:09:19;;;;;;;;;;;;;;;22.24;69.70;97414.78;586954;242;64894;-65
2023/09/17 11:11:46;;;;;;;;;;;;;;;22.24;69.73;97414.78;586885;242;67039;-65
2023/09/17 11:14:15;;;;;;;;;;;;;;;22.23;69.92;97416.63;586832;242;65162;-65
2023/09/17 11:16:43;;;;;;;;;;;;;;;22.24;70.04;97418.25;586857;242;64949;-65
2023/09/17 11:19:11;;;;;;;;;;;;;;;22.23;70.01;97411.28;586884;242;67253;-65
2023/09/17 11:21:41;;;;;;;;;;;;;;;22.24;70.08;97412.91;586907;242;65375;-65
2023/09/17 11:24:12;;;;;;;;;;;;;;;22.24;70.21;97409.42;586750;242;67215;-65
2023/09/17 11:26:41;;;;;;;;;;;;;;;22.24;69.99;97410.22;586860;239;65024;-65
2023/09/17 11:29:10;;;;;;;;;;;;;;;22.24;70.24;97410.22;586844;242;64912;-65
2023/09/17 11:31:57;;;;;;;;;;;;;;;22.24;70.08;97412.10;589950;239;65233;-65
2023/09/17 11:34:24;;;;;;;;;;;;;;;22.24;70.28;97412.91;594177;239;66457;-65
2023/09/17 11:36:52;;;;;;;;;;;;;;;22.24;70.32;97407.55;594193;239;64865;-65
2023/09/17 11:39:23;;;;;;;;;;;;;;;22.24;70.27;97402.19;594118;239;64775;-65
2023/09/17 11:42:13;;;;;;;;;;;;;;;22.24;70.22;97407.55;594129;239;65263;-65
2023/09/17 11:44:23;;;;;;;;;;;;;;;22.24;70.30;97401.39;590955;239;65112;-65
2023/09/17 11:46:50;;;;;;;;;;;;;;;22.25;70.32;97397.63;594139;239;67224;-65
2023/09/17 11:49:18;;;;;;;;;;;;;;;22.24;70.40;97388.01;594202;239;66927;-65
2023/09/17 11:51:46;;;;;;;;;;;;;;;22.24;70.43;97386.13;594076;239;64912;-65
2023/09/17 11:54:20;;;;;;;;;;;;;;;22.25;70.31;97392.28;594110;239;67135;-65
2023/09/17 11:56:49;;;;;;;;;;;;;;;22.25;70.37;97386.92;594090;239;64987;-65
2023/09/17 11:59:18;;;;;;;;;;;;;;;22.24;70.42;97383.45;594103;239;64911;-65
2023/09/17 12:01:47;;;;;;;;;;;;;;;22.24;70.33;97386.13;594154;239;66896;-65
2023/09/17 12:04:14;;;;;;;;;;;;;;;22.24;70.34;97383.45;594166;239;66976;-65
2023/09/17 12:06:44;;;;;;;;;;;;;;;22.25;70.50;97377.02;594099;239;62933;-65
2023/09/17 12:12:09;;;;;;;;;;;;;;;22.25;70.41;97376.22;591962;239;46726;-65
2023/09/17 12:14:37;;;;;;;;;;;;;;;22.24;70.39;97375.42;594091;239;65365;-65
2023/09/17 12:17:05;;;;;;;;;;;;;;;22.24;70.40;97378.09;594142;239;68129;-65
2023/09/17 12:19:33;;;;;;;;;;;;;;;22.24;70.37;97377.30;594187;239;64834;-65
2023/09/17 12:22:00;;;;;;;;;;;;;;;22.25;70.30;97370.86;594132;239;62736;-65
2023/09/17 12:24:34;;;;;;;;;;;;;;;22.25;70.39;97371.66;594180;239;64935;-65
2023/09/17 12:29:47;;;;;;;;;;;;;;;22.25;70.21;97379.69;593455;239;43898;-65
2023/09/17 12:32:17;;;;;;;;;;;;;;;22.25;70.33;97379.69;594100;239;67071;-65
2023/09/17 12:34:44;;;;;;;;;;;;;;;22.25;70.32;97377.02;594196;239;65049;-65
2023/09/17 12:37:12;;;;;;;;;;;;;;;22.25;70.32;97376.22;594133;239;63652;-65
2023/09/17 12:39:46;;;;;;;;;;;;;;;22.25;70.38;97384.25;594119;239;67275;-65
2023/09/17 12:42:10;;;;;;;;;;;;;;;22.26;70.39;97383.98;593944;239;67047;-65
2023/09/17 12:44:37;;;;;;;;;;;;;;;22.24;70.31;97375.42;594144;239;64902;-65
2023/09/17 12:47:05;;;;;;;;;;;;;;;22.26;70.44;97381.31;594206;239;67074;-65
2023/09/17 12:49:33;;;;;;;;;;;;;;;22.25;70.42;97381.57;594162;239;66672;-64
2023/09/17 12:52:01;;;;;;;;;;;;;;;22.26;70.40;97381.31;594125;239;65087;-65
2023/09/17 12:54:29;;;;;;;;;;;;;;;22.26;70.47;97378.64;594087;239;65086;-65
2023/09/17 12:56:57;;;;;;;;;;;;;;;22.25;70.39;97377.02;594131;239;65294;-65
2023/09/17 12:59:32;;;;;;;;;;;;;;;22.25;70.37;97390.40;594184;239;65118;-65